createdAt,value
2018-08-20T00:01:02.792Z,44.22
2018-08-20T00:02:38.589Z,44.20
2018-08-20T00:04:14.031Z,44.46
2018-08-20T00:05:53.569Z,44.40
2018-08-20T00:07:28.803Z,43.96
2018-08-20T00:09:08.008Z,44.35
2018-08-20T00:10:43.406Z,44.28
2018-08-20T00:12:20.553Z,44.20
2018-08-20T00:13:57.458Z,44.63
2018-08-20T00:15:33.401Z,44.07
2018-08-20T00:17:09.937Z,44.64
2018-08-20T00:18:48.595Z,44.77
2018-08-20T00:20:24.238Z,44.42
2018-08-20T00:22:00.183Z,44.42
2018-08-20T00:23:36.042Z,44.77
2018-08-20T00:25:17.847Z,44.16
2018-08-20T00:26:53.359Z,44.81
2018-08-20T00:28:29.081Z,44.84
2018-08-20T00:30:16.679Z,44.84
2018-08-20T00:31:53.268Z,44.72
2018-08-20T00:33:30.165Z,44.61
2018-08-20T00:35:06.483Z,44.50
2018-08-20T00:36:42.455Z,44.62
2018-08-20T00:38:20.007Z,44.47
2018-08-20T00:39:55.857Z,44.37
2018-08-20T00:41:34.865Z,44.37
2018-08-20T00:43:10.617Z,44.59
2018-08-20T00:44:46.506Z,44.35
2018-08-20T00:46:22.121Z,44.97
2018-08-20T00:47:58.390Z,44.17
2018-08-20T00:49:33.816Z,44.58
2018-08-20T00:51:12.228Z,44.80
2018-08-20T00:52:47.519Z,44.85
2018-08-20T00:54:23.861Z,44.70
2018-08-20T00:55:59.893Z,45.00
2018-08-20T00:57:35.286Z,44.31
2018-08-20T00:59:11.768Z,44.88
2018-08-20T01:00:47.743Z,44.71
2018-08-20T01:02:26.431Z,44.70
2018-08-20T01:04:02.448Z,45.01
2018-08-20T01:05:38.462Z,44.78
2018-08-20T01:07:15.713Z,44.92
2018-08-20T01:08:51.065Z,45.01
2018-08-20T01:10:26.717Z,45.19
2018-08-20T01:12:03.140Z,44.48
2018-08-20T01:13:38.446Z,44.90
2018-08-20T01:15:20.135Z,45.34
2018-08-20T01:16:56.174Z,44.93
2018-08-20T01:18:31.495Z,44.64
2018-08-20T01:20:07.126Z,44.96
2018-08-20T01:21:43.212Z,44.58
2018-08-20T01:23:18.516Z,45.32
2018-08-20T01:24:53.843Z,45.26
2018-08-20T01:26:29.120Z,45.37
2018-08-20T01:28:04.779Z,45.08
2018-08-20T01:29:40.083Z,44.88
2018-08-20T01:31:15.866Z,45.11
2018-08-20T01:32:51.365Z,44.94
2018-08-20T01:34:27.194Z,44.76
2018-08-20T01:36:02.615Z,45.18
2018-08-20T01:37:38.019Z,44.97
2018-08-20T01:39:13.819Z,45.45
2018-08-20T01:40:49.465Z,44.86
2018-08-20T01:42:25.369Z,45.26
2018-08-20T01:44:00.594Z,45.50
2018-08-20T01:45:36.339Z,45.30
2018-08-20T01:47:11.764Z,44.95
2018-08-20T01:48:47.642Z,45.09
2018-08-20T01:50:23.099Z,45.58
2018-08-20T01:51:58.651Z,45.77
2018-08-20T01:53:35.277Z,45.57
2018-08-20T01:55:10.511Z,45.44
2018-08-20T01:56:46.050Z,45.22
2018-08-20T01:58:23.654Z,45.47
2018-08-20T01:59:59.388Z,45.53
2018-08-20T02:01:35.046Z,45.14
2018-08-20T02:03:10.723Z,45.50
2018-08-20T02:04:46.141Z,45.71
2018-08-20T02:06:22.512Z,46.01
2018-08-20T02:07:58.420Z,45.82
2018-08-20T02:09:34.360Z,46.07
2018-08-20T02:11:09.661Z,46.31
2018-08-20T02:12:44.969Z,45.60
2018-08-20T02:14:20.233Z,45.61
2018-08-20T02:15:57.929Z,45.58
2018-08-20T02:17:33.328Z,45.87
2018-08-20T02:19:11.030Z,45.89
2018-08-20T02:20:46.425Z,45.79
2018-08-20T02:22:21.685Z,45.78
2018-08-20T02:23:57.306Z,46.16
2018-08-20T02:25:32.748Z,46.18
2018-08-20T02:27:08.631Z,45.66
2018-08-20T02:28:44.670Z,45.71
2018-08-20T02:30:20.149Z,46.07
2018-08-20T02:31:55.755Z,45.90
2018-08-20T02:33:31.299Z,45.80
2018-08-20T02:35:07.434Z,45.85
2018-08-20T02:36:43.202Z,45.88
2018-08-20T02:38:19.189Z,46.38
2018-08-20T02:39:54.459Z,45.94
2018-08-20T02:41:30.528Z,46.29
2018-08-20T02:43:06.531Z,46.27
2018-08-20T02:44:41.730Z,46.54
2018-08-20T02:46:17.606Z,46.36
2018-08-20T02:47:53.081Z,46.79
2018-08-20T02:49:28.598Z,46.01
2018-08-20T02:51:04.322Z,46.14
2018-08-20T02:52:39.636Z,46.66
2018-08-20T02:54:15.062Z,46.16
2018-08-20T02:55:50.543Z,46.66
2018-08-20T02:57:26.216Z,46.15
2018-08-20T02:59:01.642Z,46.78
2018-08-20T03:00:38.121Z,46.54
2018-08-20T03:02:13.430Z,46.42
2018-08-20T03:03:49.945Z,46.94
2018-08-20T03:05:26.412Z,46.96
2018-08-20T03:07:02.088Z,46.83
2018-08-20T03:08:37.400Z,47.21
2018-08-20T03:10:13.825Z,46.60
2018-08-20T03:11:49.072Z,47.12
2018-08-20T03:13:24.277Z,46.62
2018-08-20T03:14:59.747Z,46.79
2018-08-20T03:16:36.279Z,46.83
2018-08-20T03:18:12.093Z,47.00
2018-08-20T03:19:48.830Z,46.55
2018-08-20T03:21:24.466Z,46.86
2018-08-20T03:23:01.519Z,46.76
2018-08-20T03:24:38.079Z,47.09
2018-08-20T03:26:13.678Z,47.54
2018-08-20T03:27:49.539Z,47.54
2018-08-20T03:29:25.183Z,46.96
2018-08-20T03:31:04.538Z,46.91
2018-08-20T03:32:41.079Z,47.62
2018-08-20T03:34:16.687Z,47.37
2018-08-20T03:35:54.494Z,47.14
2018-08-20T03:37:31.675Z,47.45
2018-08-20T03:39:09.829Z,47.65
2018-08-20T03:40:45.082Z,47.64
2018-08-20T03:42:21.478Z,47.15
2018-08-20T03:43:57.189Z,47.21
2018-08-20T03:45:32.694Z,47.06
2018-08-20T03:47:08.013Z,47.76
2018-08-20T03:48:44.128Z,47.56
2018-08-20T03:50:20.485Z,47.36
2018-08-20T03:51:56.634Z,47.85
2018-08-20T03:53:32.310Z,47.91
2018-08-20T03:55:07.598Z,47.76
2018-08-20T03:56:44.146Z,47.96
2018-08-20T03:58:19.973Z,47.43
2018-08-20T03:59:56.196Z,47.48
2018-08-20T04:01:31.729Z,47.92
2018-08-20T04:03:07.361Z,47.77
2018-08-20T04:04:45.537Z,47.78
2018-08-20T04:06:22.537Z,47.57
2018-08-20T04:07:57.770Z,47.88
2018-08-20T04:09:33.445Z,47.86
2018-08-20T04:11:10.528Z,47.88
2018-08-20T04:12:46.263Z,47.50
2018-08-20T04:14:21.761Z,48.13
2018-08-20T04:15:58.825Z,48.42
2018-08-20T04:17:35.082Z,48.40
2018-08-20T04:19:10.526Z,47.83
2018-08-20T04:20:48.703Z,48.29
2018-08-20T04:22:24.071Z,47.74
2018-08-20T04:23:59.373Z,47.74
2018-08-20T04:25:34.934Z,47.92
2018-08-20T04:27:10.258Z,48.36
2018-08-20T04:28:46.435Z,48.51
2018-08-20T04:30:23.490Z,48.51
2018-08-20T04:31:59.273Z,47.88
2018-08-20T04:33:35.931Z,48.47
2018-08-20T04:35:11.165Z,47.91
2018-08-20T04:36:46.952Z,47.95
2018-08-20T04:38:23.634Z,48.27
2018-08-20T04:39:58.917Z,48.77
2018-08-20T04:41:34.195Z,48.05
2018-08-20T04:43:10.358Z,48.30
2018-08-20T04:44:47.922Z,48.77
2018-08-20T04:46:25.261Z,48.15
2018-08-20T04:48:00.680Z,48.31
2018-08-20T04:49:36.398Z,48.22
2018-08-20T04:51:11.880Z,48.46
2018-08-20T04:52:49.283Z,48.88
2018-08-20T04:54:24.595Z,48.33
2018-08-20T04:56:08.414Z,48.17
2018-08-20T04:57:44.774Z,48.81
2018-08-20T04:59:20.950Z,48.30
2018-08-20T05:00:57.107Z,48.44
2018-08-20T05:02:32.734Z,49.00
2018-08-20T05:04:08.464Z,48.80
2018-08-20T05:05:44.517Z,49.00
2018-08-20T05:07:20.652Z,49.03
2018-08-20T05:08:55.875Z,48.69
2018-08-20T05:10:31.134Z,49.29
2018-08-20T05:12:07.347Z,49.04
2018-08-20T05:13:43.885Z,49.10
2018-08-20T05:15:19.519Z,48.51
2018-08-20T05:16:55.774Z,48.53
2018-08-20T05:18:32.030Z,49.04
2018-08-20T05:20:08.316Z,49.31
2018-08-20T05:21:44.524Z,48.81
2018-08-20T05:23:19.734Z,49.12
2018-08-20T05:24:59.583Z,49.22
2018-08-20T05:26:35.032Z,48.92
2018-08-20T05:28:12.816Z,49.46
2018-08-20T05:29:48.179Z,48.92
2018-08-20T05:31:23.980Z,49.33
2018-08-20T05:33:00.297Z,49.62
2018-08-20T05:34:36.613Z,49.71
2018-08-20T05:36:18.293Z,49.49
2018-08-20T05:37:59.215Z,49.39
2018-08-20T05:39:41.592Z,49.16
2018-08-20T05:41:25.127Z,49.62
2018-08-20T05:43:00.753Z,49.13
2018-08-20T05:44:36.021Z,49.30
2018-08-20T05:46:11.961Z,49.51
2018-08-20T05:47:47.623Z,49.69
2018-08-20T05:49:23.106Z,49.80
2018-08-20T05:50:58.363Z,49.26
2018-08-20T05:52:34.193Z,49.58
2018-08-20T05:54:10.383Z,49.24
2018-08-20T05:55:46.237Z,49.41
2018-08-20T05:57:23.119Z,49.66
2018-08-20T05:59:01.151Z,49.61
2018-08-20T06:00:38.293Z,50.19
2018-08-20T06:02:15.979Z,49.74
2018-08-20T06:03:53.422Z,49.54
2018-08-20T06:05:29.197Z,50.15
2018-08-20T06:07:08.570Z,49.79
2018-08-20T06:08:45.261Z,49.70
2018-08-20T06:10:21.351Z,49.81
2018-08-20T06:11:57.286Z,49.70
2018-08-20T06:13:34.903Z,50.11
2018-08-20T06:15:15.645Z,50.26
2018-08-20T06:16:55.246Z,49.75
2018-08-20T06:18:31.703Z,50.33
2018-08-20T06:20:10.535Z,49.68
2018-08-20T06:21:55.973Z,50.47
2018-08-20T06:23:37.005Z,49.78
2018-08-20T06:25:20.562Z,49.68
2018-08-20T06:26:56.103Z,50.50
2018-08-20T06:28:41.880Z,50.43
2018-08-20T06:30:23.316Z,49.95
2018-08-20T06:32:01.207Z,49.79
2018-08-20T06:33:36.674Z,50.42
2018-08-20T06:35:13.241Z,50.41
2018-08-20T06:36:48.647Z,50.04
2018-08-20T06:38:24.503Z,50.69
2018-08-20T06:39:59.937Z,50.71
2018-08-20T06:41:35.243Z,50.77
2018-08-20T06:43:11.231Z,49.96
2018-08-20T06:44:47.222Z,50.80
2018-08-20T06:46:23.544Z,50.54
2018-08-20T06:48:00.466Z,50.50
2018-08-20T06:49:36.417Z,50.81
2018-08-20T06:51:11.730Z,50.76
2018-08-20T06:52:47.875Z,50.71
2018-08-20T06:54:23.221Z,50.76
2018-08-20T06:55:58.879Z,50.23
2018-08-20T06:57:40.083Z,50.94
2018-08-20T07:00:09.669Z,50.50
2018-08-20T07:02:04.291Z,50.98
2018-08-20T07:03:48.712Z,50.47
2018-08-20T07:05:24.400Z,50.37
2018-08-20T07:06:59.656Z,51.03
2018-08-20T07:08:35.911Z,50.77
2018-08-20T07:10:14.718Z,51.18
2018-08-20T07:11:51.075Z,51.28
2018-08-20T07:13:34.743Z,51.12
2018-08-20T07:15:17.269Z,50.52
2018-08-20T07:19:40.357Z,50.51
2018-08-20T07:21:35.514Z,50.88
2018-08-20T07:23:49.375Z,51.01
2018-08-20T07:25:37.203Z,51.01
2018-08-20T07:27:29.262Z,51.02
2018-08-20T07:31:38.297Z,50.82
2018-08-20T07:33:15.533Z,51.36
2018-08-20T07:34:51.064Z,51.39
2018-08-20T07:36:27.599Z,51.13
2018-08-20T07:38:02.795Z,51.46
2018-08-20T07:39:38.082Z,51.29
2018-08-20T07:41:13.618Z,50.90
2018-08-20T07:42:49.506Z,51.37
2018-08-20T07:44:24.764Z,51.30
2018-08-20T07:45:59.972Z,51.26
2018-08-20T07:47:36.481Z,51.31
2018-08-20T07:49:19.524Z,50.99
2018-08-20T07:50:56.333Z,51.15
2018-08-20T07:52:31.550Z,51.76
2018-08-20T07:54:07.413Z,51.37
2018-08-20T07:55:42.749Z,51.69
2018-08-20T07:57:19.064Z,51.86
2018-08-20T07:58:54.249Z,51.29
2018-08-20T08:00:31.585Z,51.53
2018-08-20T08:02:09.052Z,51.57
2018-08-20T08:03:44.372Z,51.32
2018-08-20T08:05:20.456Z,51.22
2018-08-20T08:06:57.222Z,51.92
2018-08-20T08:08:32.674Z,51.76
2018-08-20T08:10:11.855Z,51.50
2018-08-20T08:11:47.209Z,51.34
2018-08-20T08:13:23.465Z,51.57
2018-08-20T08:14:59.508Z,52.06
2018-08-20T08:16:35.640Z,51.48
2018-08-20T08:18:10.951Z,51.41
2018-08-20T08:19:50.597Z,52.17
2018-08-20T08:21:26.326Z,51.29
2018-08-20T08:23:01.530Z,51.58
2018-08-20T08:24:37.075Z,52.23
2018-08-20T08:26:12.736Z,51.50
2018-08-20T08:27:48.693Z,51.68
2018-08-20T08:29:24.772Z,51.94
2018-08-20T08:31:02.066Z,51.97
2018-08-20T08:32:37.875Z,52.30
2018-08-20T08:34:13.672Z,51.63
2018-08-20T08:35:50.795Z,51.55
2018-08-20T08:37:26.115Z,51.55
2018-08-20T08:39:03.852Z,52.44
2018-08-20T08:40:40.240Z,52.39
2018-08-20T08:42:15.899Z,51.97
2018-08-20T08:43:51.690Z,51.88
2018-08-20T08:45:28.714Z,52.41
2018-08-20T08:47:04.134Z,52.11
2018-08-20T08:48:41.953Z,52.30
2018-08-20T08:50:18.200Z,52.30
2018-08-20T08:51:53.793Z,52.15
2018-08-20T08:53:30.087Z,52.58
2018-08-20T08:55:05.803Z,52.54
2018-08-20T08:56:42.881Z,52.11
2018-08-20T08:58:18.449Z,52.05
2018-08-20T08:59:53.623Z,52.02
2018-08-20T09:01:29.000Z,52.88
2018-08-20T09:03:04.209Z,52.16
2018-08-20T09:04:43.287Z,52.31
2018-08-20T09:06:18.690Z,52.81
2018-08-20T09:08:04.358Z,52.97
2018-08-20T09:09:39.632Z,52.89
2018-08-20T09:11:16.161Z,52.32
2018-08-20T09:12:53.100Z,53.10
2018-08-20T09:14:30.473Z,53.17
2018-08-20T09:16:08.629Z,52.98
2018-08-20T09:17:44.716Z,52.82
2018-08-20T09:19:20.812Z,52.54
2018-08-20T09:20:56.744Z,52.97
2018-08-20T09:22:32.519Z,53.15
2018-08-20T09:24:08.683Z,53.05
2018-08-20T09:25:44.821Z,53.33
2018-08-20T09:27:20.077Z,53.40
2018-08-20T09:28:57.019Z,52.84
2018-08-20T09:30:32.308Z,53.08
2018-08-20T09:32:08.105Z,53.11
2018-08-20T09:33:43.329Z,53.52
2018-08-20T09:35:19.525Z,52.97
2018-08-20T09:36:54.799Z,52.98
2018-08-20T09:38:31.380Z,52.83
2018-08-20T09:40:10.680Z,53.44
2018-08-20T09:41:46.309Z,52.97
2018-08-20T09:43:21.548Z,52.95
2018-08-20T09:44:57.335Z,53.04
2018-08-20T09:46:32.608Z,53.68
2018-08-20T09:48:08.410Z,53.78
2018-08-20T09:49:43.680Z,53.22
2018-08-20T09:51:18.909Z,53.29
2018-08-20T09:52:55.098Z,53.83
2018-08-20T09:54:31.506Z,53.37
2018-08-20T09:56:08.517Z,53.85
2018-08-20T09:57:43.838Z,53.36
2018-08-20T09:59:19.057Z,53.29
2018-08-20T10:00:54.581Z,53.43
2018-08-20T10:02:31.544Z,53.45
2018-08-20T10:04:06.939Z,54.17
2018-08-20T10:05:42.433Z,53.94
2018-08-20T10:07:22.067Z,54.03
2018-08-20T10:09:00.191Z,53.67
2018-08-20T10:10:38.480Z,53.80
2018-08-20T10:12:13.928Z,53.72
2018-08-20T10:13:50.922Z,54.28
2018-08-20T10:15:30.630Z,54.50
2018-08-20T10:17:07.150Z,54.42
2018-08-20T10:18:44.011Z,53.71
2018-08-20T10:20:20.554Z,54.41
2018-08-20T10:21:55.835Z,53.91
2018-08-20T10:23:32.610Z,53.87
2018-08-20T10:25:08.426Z,53.86
2018-08-20T10:26:46.816Z,54.00
2018-08-20T10:28:22.150Z,53.91
2018-08-20T10:29:58.168Z,53.89
2018-08-20T10:31:36.067Z,54.64
2018-08-20T10:33:14.118Z,54.36
2018-08-20T10:34:50.092Z,54.26
2018-08-20T10:36:25.319Z,54.18
2018-08-20T10:38:02.093Z,54.79
2018-08-20T10:39:39.097Z,54.85
2018-08-20T10:41:14.301Z,54.21
2018-08-20T10:42:52.666Z,55.02
2018-08-20T10:44:29.072Z,54.20
2018-08-20T10:46:25.756Z,55.09
2018-08-20T10:48:02.646Z,54.89
2018-08-20T10:51:11.262Z,55.17
2018-08-20T10:52:54.735Z,54.78
2018-08-20T10:54:30.387Z,54.91
2018-08-20T10:56:06.361Z,54.47
2018-08-20T10:57:43.303Z,55.42
2018-08-20T10:59:18.522Z,55.20
2018-08-20T11:00:56.541Z,55.25
2018-08-20T11:02:32.814Z,55.26
2018-08-20T11:04:09.920Z,55.12
2018-08-20T11:05:45.276Z,54.64
2018-08-20T11:07:22.109Z,54.96
2018-08-20T11:08:58.975Z,54.67
2018-08-20T11:10:34.701Z,55.10
2018-08-20T11:12:09.971Z,55.20
2018-08-20T11:13:45.286Z,55.49
2018-08-20T11:15:23.265Z,55.33
2018-08-20T11:16:58.797Z,55.14
2018-08-20T11:18:36.133Z,54.96
2018-08-20T11:20:15.275Z,55.00
2018-08-20T11:21:50.965Z,55.79
2018-08-20T11:23:26.248Z,55.54
2018-08-20T11:25:01.553Z,55.48
2018-08-20T11:26:37.543Z,55.50
2018-08-20T11:28:14.859Z,55.29
2018-08-20T11:29:51.158Z,55.87
2018-08-20T11:31:28.482Z,55.28
2018-08-20T11:33:05.234Z,55.60
2018-08-20T11:34:41.745Z,55.34
2018-08-20T11:36:18.523Z,55.33
2018-08-20T11:37:53.979Z,55.71
2018-08-20T11:39:33.555Z,55.29
2018-08-20T11:41:12.173Z,55.68
2018-08-20T11:42:49.988Z,55.57
2018-08-20T11:44:27.830Z,55.45
2018-08-20T11:46:05.519Z,55.95
2018-08-20T11:47:42.545Z,55.44
2018-08-20T11:49:22.411Z,56.03
2018-08-20T11:51:00.177Z,55.69
2018-08-20T11:52:35.542Z,56.05
2018-08-20T11:54:15.254Z,56.07
2018-08-20T11:57:35.604Z,55.80
2018-08-20T11:59:15.210Z,56.01
2018-08-20T12:00:52.394Z,55.47
2018-08-20T12:02:29.972Z,56.44
2018-08-20T12:04:06.588Z,56.14
2018-08-20T12:05:42.772Z,56.13
2018-08-20T12:07:22.874Z,56.02
2018-08-20T12:09:02.498Z,55.53
2018-08-20T12:10:43.265Z,55.70
2018-08-20T12:12:25.135Z,55.76
2018-08-20T12:14:03.400Z,55.78
2018-08-20T12:15:40.582Z,56.18
2018-08-20T12:17:19.960Z,55.53
2018-08-20T12:18:55.174Z,55.99
2018-08-20T12:20:32.525Z,56.18
2018-08-20T12:22:10.049Z,55.55
2018-08-20T12:23:50.042Z,55.44
2018-08-20T12:25:25.326Z,55.39
2018-08-20T12:27:02.303Z,55.53
2018-08-20T12:28:40.654Z,56.22
2018-08-20T12:30:21.853Z,55.55
2018-08-20T12:31:58.166Z,55.60
2018-08-20T12:33:40.547Z,55.44
2018-08-20T12:35:20.410Z,55.68
2018-08-20T12:37:04.221Z,55.42
2018-08-20T12:40:28.813Z,55.62
2018-08-20T12:42:07.292Z,55.92
2018-08-20T12:43:44.529Z,55.58
2018-08-20T12:45:21.267Z,55.35
2018-08-20T12:46:56.570Z,55.15
2018-08-20T12:48:32.011Z,55.87
2018-08-20T12:50:20.867Z,55.87
2018-08-20T12:53:27.767Z,55.94
2018-08-20T12:55:03.165Z,55.79
2018-08-20T12:56:40.855Z,55.76
2018-08-20T12:58:18.609Z,55.91
2018-08-20T12:59:57.612Z,55.45
2018-08-20T13:01:37.231Z,55.56
2018-08-20T13:03:22.639Z,55.18
2018-08-20T13:04:59.698Z,55.69
2018-08-20T13:06:36.212Z,55.30
2018-08-20T13:08:14.306Z,55.77
2018-08-20T13:09:49.642Z,55.03
2018-08-20T13:11:30.501Z,55.51
2018-08-20T13:13:06.657Z,55.19
2018-08-20T13:14:42.199Z,55.07
2018-08-20T13:16:18.540Z,54.90
2018-08-20T13:17:55.580Z,55.37
2018-08-20T13:19:32.568Z,54.92
2018-08-20T13:21:11.191Z,55.32
2018-08-20T13:22:46.544Z,54.76
2018-08-20T13:24:22.468Z,54.76
2018-08-20T13:25:58.563Z,55.07
2018-08-20T13:27:36.348Z,55.43
2018-08-20T13:29:12.073Z,54.80
2018-08-20T13:30:47.634Z,55.38
2018-08-20T13:32:24.491Z,55.26
2018-08-20T13:33:59.842Z,55.30
2018-08-20T13:35:35.107Z,54.77
2018-08-20T13:37:13.676Z,54.89
2018-08-20T13:38:49.713Z,54.50
2018-08-20T13:40:25.515Z,54.50
2018-08-20T13:42:02.181Z,54.95
2018-08-20T13:43:38.086Z,54.44
2018-08-20T13:45:17.415Z,54.89
2018-08-20T13:47:03.870Z,55.22
2018-08-20T13:48:45.479Z,54.93
2018-08-20T13:50:29.471Z,54.16
2018-08-20T13:52:14.163Z,54.79
2018-08-20T13:53:57.829Z,54.33
2018-08-20T13:55:33.329Z,55.11
2018-08-20T13:57:08.680Z,55.06
2018-08-20T13:58:44.837Z,54.62
2018-08-20T14:00:22.390Z,54.76
2018-08-20T14:01:58.522Z,54.86
2018-08-20T14:03:35.379Z,54.90
2018-08-20T14:05:11.723Z,55.01
2018-08-20T14:06:47.564Z,54.63
2018-08-20T14:08:24.553Z,54.72
2018-08-20T14:10:02.168Z,54.74
2018-08-20T14:11:38.964Z,54.50
2018-08-20T14:13:16.041Z,54.40
2018-08-20T14:14:51.809Z,54.52
2018-08-20T14:16:31.110Z,54.22
2018-08-20T14:18:08.878Z,54.81
2018-08-20T14:19:52.677Z,54.84
2018-08-20T14:21:28.484Z,54.98
2018-08-20T14:23:07.320Z,54.52
2018-08-20T14:24:42.604Z,54.26
2018-08-20T14:26:18.874Z,54.53
2018-08-20T14:27:56.273Z,54.39
2018-08-20T14:29:35.183Z,54.93
2018-08-20T14:31:20.383Z,54.73
2018-08-20T14:32:59.235Z,54.23
2018-08-20T14:34:40.762Z,54.98
2018-08-20T14:36:20.387Z,54.40
2018-08-20T14:37:56.595Z,55.06
2018-08-20T14:39:32.576Z,55.05
2018-08-20T14:41:15.267Z,54.69
2018-08-20T14:42:51.192Z,54.82
2018-08-20T14:44:28.395Z,54.42
2018-08-20T14:46:20.156Z,54.82
2018-08-20T14:48:06.832Z,54.29
2018-08-20T14:49:49.943Z,54.85
2018-08-20T14:51:25.622Z,54.59
2018-08-20T14:53:04.795Z,54.51
2018-08-20T14:54:40.842Z,54.49
2018-08-20T14:56:16.495Z,54.41
2018-08-20T14:58:02.215Z,54.51
2018-08-20T14:59:38.249Z,54.95
2018-08-20T15:01:13.876Z,54.32
2018-08-20T15:02:49.493Z,54.82
2018-08-20T15:06:05.794Z,54.29
2018-08-20T15:07:43.242Z,54.18
2018-08-20T15:09:28.151Z,54.31
2018-08-20T15:11:05.552Z,54.54
2018-08-20T15:12:41.537Z,55.00
2018-08-20T15:14:20.675Z,54.35
2018-08-20T15:15:57.779Z,54.95
2018-08-20T15:17:35.129Z,54.27
2018-08-20T15:19:13.447Z,54.28
2018-08-20T15:20:49.913Z,54.13
2018-08-20T15:22:28.718Z,54.14
2018-08-20T15:24:05.645Z,54.64
2018-08-20T15:25:41.136Z,54.97
2018-08-20T15:27:20.667Z,54.21
2018-08-20T15:28:55.945Z,54.57
2018-08-20T15:30:35.902Z,54.60
2018-08-20T15:32:12.373Z,54.20
2018-08-20T15:33:47.631Z,54.05
2018-08-20T15:35:23.763Z,54.22
2018-08-20T15:37:00.081Z,54.21
2018-08-20T15:38:37.572Z,54.10
2018-08-20T15:40:13.588Z,54.46
2018-08-20T15:41:57.636Z,54.66
2018-08-20T15:43:40.564Z,54.30
2018-08-20T15:45:21.686Z,54.46
2018-08-20T15:46:58.257Z,54.38
2018-08-20T15:48:35.377Z,54.19
2018-08-20T15:50:13.429Z,54.29
2018-08-20T15:52:04.734Z,54.30
2018-08-20T15:53:42.735Z,54.63
2018-08-20T15:55:19.027Z,54.21
2018-08-20T15:56:56.463Z,53.99
2018-08-20T15:58:34.280Z,54.58
2018-08-20T16:00:20.682Z,54.61
2018-08-20T16:01:58.562Z,54.59
2018-08-20T16:03:34.038Z,53.98
2018-08-20T16:05:11.567Z,54.08
2018-08-20T16:06:50.230Z,53.91
2018-08-20T16:08:28.143Z,54.15
2018-08-20T16:10:06.204Z,54.09
2018-08-20T16:11:43.255Z,54.38
2018-08-20T16:13:21.608Z,54.39
2018-08-20T16:15:01.470Z,54.14
2018-08-20T16:16:41.235Z,53.94
2018-08-20T16:18:17.254Z,53.68
2018-08-20T16:19:54.185Z,53.82
2018-08-20T16:21:33.231Z,54.15
2018-08-20T16:23:18.340Z,53.63
2018-08-20T16:24:54.994Z,53.65
2018-08-20T16:26:33.863Z,53.63
2018-08-20T16:28:11.073Z,53.90
2018-08-20T16:29:49.116Z,53.66
2018-08-20T16:31:34.886Z,53.57
2018-08-20T16:33:14.428Z,53.79
2018-08-20T16:34:54.594Z,53.66
2018-08-20T16:36:36.174Z,53.62
2018-08-20T16:38:22.716Z,53.82
2018-08-20T16:40:10.039Z,53.49
2018-08-20T16:41:45.452Z,54.08
2018-08-20T16:43:27.206Z,53.41
2018-08-20T16:45:06.991Z,53.51
2018-08-20T16:46:52.985Z,53.50
2018-08-20T16:48:30.168Z,54.12
2018-08-20T16:50:17.666Z,53.83
2018-08-20T16:51:57.803Z,53.35
2018-08-20T16:53:43.497Z,53.41
2018-08-20T16:55:23.521Z,54.04
2018-08-20T16:57:09.670Z,54.01
2018-08-20T16:58:48.515Z,54.07
2018-08-20T17:00:29.111Z,53.29
2018-08-20T17:02:11.322Z,53.47
2018-08-20T17:03:56.204Z,53.21
2018-08-20T17:05:41.601Z,53.70
2018-08-20T17:07:20.669Z,53.30
2018-08-20T17:08:59.888Z,53.75
2018-08-20T17:10:36.549Z,53.54
2018-08-20T17:12:14.074Z,53.34
2018-08-20T17:13:51.652Z,53.89
2018-08-20T17:15:44.641Z,53.86
2018-08-20T17:17:25.818Z,53.54
2018-08-20T17:19:07.461Z,53.32
2018-08-20T17:20:58.399Z,53.10
2018-08-20T17:22:39.953Z,53.23
2018-08-20T17:24:26.542Z,53.96
2018-08-20T17:26:03.643Z,53.77
2018-08-20T17:27:42.855Z,53.39
2018-08-20T17:29:19.578Z,53.16
2018-08-20T17:31:03.652Z,53.27
2018-08-20T17:32:40.687Z,53.44
2018-08-20T17:34:17.776Z,53.00
2018-08-20T17:35:57.392Z,53.47
2018-08-20T17:37:35.799Z,53.72
2018-08-20T17:39:14.337Z,53.06
2018-08-20T17:40:53.702Z,53.26
2018-08-20T17:42:31.258Z,52.96
2018-08-20T17:44:08.533Z,53.08
2018-08-20T17:45:44.651Z,53.67
2018-08-20T17:47:25.847Z,53.08
2018-08-20T17:49:01.907Z,53.04
2018-08-20T17:50:45.606Z,53.37
2018-08-20T17:52:23.551Z,53.33
2018-08-20T17:54:00.567Z,52.85
2018-08-20T17:55:37.756Z,53.04
2018-08-20T17:57:14.224Z,53.44
2018-08-20T17:59:02.550Z,52.90
2018-08-20T18:00:50.441Z,53.13
2018-08-20T18:02:30.728Z,53.13
2018-08-20T18:04:08.448Z,53.07
2018-08-20T18:05:51.000Z,53.18
2018-08-20T18:07:31.592Z,53.06
2018-08-20T18:09:16.910Z,53.34
2018-08-20T18:10:59.686Z,53.09
2018-08-20T18:12:50.981Z,52.80
2018-08-20T18:14:53.981Z,52.56
2018-08-20T18:16:55.846Z,53.22
2018-08-20T18:18:33.397Z,52.68
2018-08-20T18:20:09.331Z,52.67
2018-08-20T18:21:45.201Z,52.47
2018-08-20T18:23:22.932Z,52.72
2018-08-20T18:24:58.804Z,53.15
2018-08-20T18:26:43.674Z,52.90
2018-08-20T18:28:21.717Z,52.92
2018-08-20T18:29:57.271Z,53.14
2018-08-20T18:31:33.465Z,52.88
2018-08-20T18:33:10.945Z,52.41
2018-08-20T18:34:49.037Z,52.28
2018-08-20T18:36:28.500Z,52.27
2018-08-20T18:38:08.405Z,52.29
2018-08-20T18:39:50.681Z,52.52
2018-08-20T18:42:21.427Z,52.92
2018-08-20T18:44:00.232Z,52.30
2018-08-20T18:45:36.048Z,52.18
2018-08-20T18:47:16.929Z,52.84
2018-08-20T18:48:53.599Z,53.08
2018-08-20T18:50:29.963Z,52.66
2018-08-20T18:52:11.510Z,52.75
2018-08-20T18:53:56.329Z,52.09
2018-08-20T18:55:34.987Z,52.37
2018-08-20T18:57:10.797Z,52.68
2018-08-20T18:58:51.657Z,52.04
2018-08-20T19:00:31.238Z,52.55
2018-08-20T19:02:12.050Z,52.34
2018-08-20T19:04:07.352Z,52.82
2018-08-20T19:06:02.925Z,52.79
2018-08-20T19:07:42.643Z,52.38
2018-08-20T19:09:19.745Z,51.95
2018-08-20T19:10:59.325Z,52.65
2018-08-20T19:12:39.153Z,52.27
2018-08-20T19:14:17.727Z,52.30
2018-08-20T19:15:54.042Z,52.40
2018-08-20T19:17:30.382Z,52.61
2018-08-20T19:19:11.725Z,52.09
2018-08-20T19:20:50.167Z,52.16
2018-08-20T19:22:29.711Z,52.65
2018-08-20T19:24:09.488Z,52.12
2018-08-20T19:25:48.022Z,51.95
2018-08-20T19:27:31.312Z,52.50
2018-08-20T19:29:29.449Z,51.81
2018-08-20T19:31:08.243Z,52.72
2018-08-20T19:32:44.232Z,52.24
2018-08-20T19:34:19.714Z,51.71
2018-08-20T19:35:55.533Z,51.90
2018-08-20T19:37:32.009Z,51.79
2018-08-20T19:39:12.391Z,51.97
2018-08-20T19:40:53.645Z,52.47
2018-08-20T19:42:34.558Z,52.27
2018-08-20T19:44:12.216Z,51.64
2018-08-20T19:45:52.352Z,51.63
2018-08-20T19:47:28.555Z,51.75
2018-08-20T19:49:08.816Z,52.14
2018-08-20T19:50:45.364Z,52.27
2018-08-20T19:52:21.136Z,52.04
2018-08-20T19:54:01.253Z,52.08
2018-08-20T19:55:36.811Z,51.55
2018-08-20T19:57:12.704Z,51.63
2018-08-20T19:58:51.641Z,52.14
2018-08-20T20:00:48.724Z,52.18
2018-08-20T20:02:26.654Z,51.75
2018-08-20T20:04:04.642Z,52.26
2018-08-20T20:05:41.547Z,52.00
2018-08-20T20:07:22.289Z,51.51
2018-08-20T20:09:01.291Z,51.57
2018-08-20T20:10:40.998Z,52.02
2018-08-20T20:12:17.508Z,52.13
2018-08-20T20:13:57.382Z,52.21
2018-08-20T20:15:40.558Z,51.73
2018-08-20T20:17:24.199Z,52.17
2018-08-20T20:19:03.797Z,52.00
2018-08-20T20:20:39.676Z,52.06
2018-08-20T20:22:18.650Z,51.63
2018-08-20T20:23:57.859Z,51.81
2018-08-20T20:25:37.132Z,52.08
2018-08-20T20:27:13.651Z,51.75
2018-08-20T20:28:58.023Z,51.95
2018-08-20T20:30:35.201Z,52.08
2018-08-20T20:32:11.441Z,51.90
2018-08-20T20:33:48.679Z,51.66
2018-08-20T20:35:27.900Z,51.95
2018-08-20T20:37:04.054Z,51.46
2018-08-20T20:38:41.217Z,52.04
2018-08-20T20:40:20.151Z,51.20
2018-08-20T20:41:58.342Z,51.30
2018-08-20T20:43:38.839Z,51.86
2018-08-20T20:45:17.094Z,51.64
2018-08-20T20:46:53.766Z,51.94
2018-08-20T20:48:31.397Z,51.14
2018-08-20T20:50:08.478Z,51.65
2018-08-20T20:51:46.437Z,51.75
2018-08-20T20:53:22.630Z,51.09
2018-08-20T20:54:58.558Z,51.20
2018-08-20T20:56:37.700Z,51.39
2018-08-20T20:58:22.084Z,51.87
2018-08-20T20:59:57.680Z,51.60
2018-08-20T21:01:33.507Z,51.21
2018-08-20T21:03:11.972Z,51.09
2018-08-20T21:04:49.324Z,51.57
2018-08-20T21:06:25.683Z,51.84
2018-08-20T21:08:01.397Z,51.21
2018-08-20T21:09:50.370Z,51.33
2018-08-20T21:11:30.011Z,51.71
2018-08-20T21:13:08.669Z,51.33
2018-08-20T21:14:45.591Z,51.37
2018-08-20T21:16:26.430Z,51.18